Logo AVAMET Logo AVAMET
Benvolgut visitant, si us plau, ingressa Recuperar contrasenya
AVAMET paisatges
Union Alcoyana

Almassora

Dades diàries. Acumulats / Últims 30 dies disponibles

Data Temperatura (°C) Humitat rel. (%) Pressió rel. (hPa) Vent (km/h) Precipitació
Mínima Mitjana Màxima Amplitud
tèrmica
Mínima Mitjana Màxima Mínima Mitjana Màxima Predom. Mitjana Ràfega
màxima
Total
(mm)
Índex-n
Mínima Mitjana Màxima Mínima Mitjana Màxima n
0 a 1
P0 max
mm 5'
Dades mensuals acumulades fins l'últim dia disponible
04/2024 9,8 12,7 15,2 16,6 16,5 20,6 25,1 15,3 27 65 96 1.004 1.020 1.033   8,1 56,3 0,6
Dades anuals acumulades fins l'últim dia disponible
2024 3,4 10,6 16,1 14,4 12,3 18,5 25,2 21,8 27 67 100 987 1.018 1.038   8,2 70,8 48,8
Últims 30 dies disponibles
22-04-2024 12,9     14,3     16,5 3,6 42 74 85 1.014 1.016 1.019 SSE 11,8 53,1 0,0
21-04-2024 9,8     14,9     18,8 9,0 47 71 85 1.014 1.016 1.018 WNW 9,3 38,6 0,0
20-04-2024 11,0     15,4     19,3 8,3 56 72 82 1.015 1.017 1.020 WNW 7,9 29,0 0,0
19-04-2024 11,1     14,7     17,7 6,6 52 69 81 1.019 1.022 1.025 SSE 11,6 41,8 0,6
18-04-2024 11,2     15,2     18,9 7,7 50 71 83 1.015 1.016 1.021 WNW 7,4 30,6 0,0
17-04-2024 13,7     16,0     19,3 5,6 49 65 82 1.015 1.016 1.017 WNW 9,2 33,8 0,0
16-04-2024 15,1     17,5     20,0 4,9 55 67 82 1.014 1.016 1.018 SSE 7,2 32,2 0,0
15-04-2024 14,6     19,3     25,1 10,5 39 55 75 1.018 1.019 1.023 SSE 7,1 24,1 0,0
14-04-2024 15,2     19,7     24,7 9,5 39 52 70 1.022 1.025 1.027 WNW 8,4 27,4 0,0
13-04-2024 14,9     19,8     24,9 10,0 33 47 58 1.026 1.028 1.030 WNW 8,5 22,5 0,0
12-04-2024 11,8     17,7     22,8 11,0 39 53 87 1.029 1.031 1.033 WNW 9,8 33,8 0,0
11-04-2024 11,9     15,6     18,8 6,9 47 63 87 1.026 1.029 1.033 NW 6,4 25,7 0,0
10-04-2024 11,8     15,7     20,2 8,4 33 52 81 1.025 1.028 1.030 SSE 8,2 32,2 0,0
09-04-2024 14,2     17,4     21,1 6,9 27 43 58 1.014 1.023 1.029 NW 11,7 40,2 0,0
08-04-2024 14,7     19,1     24,0 9,3 44 77 95 1.008 1.011 1.014 SSE 5,5 40,2 0,0
07-04-2024 15,2     15,7     17,1 1,9 94 95 95 1.013 1.016 1.019 NNE 0,3 14,5 0,0
06-04-2024 11,8     15,6     19,6 7,8 67 84 96 1.018 1.019 1.021 ENE 7,1 33,8 0,0
05-04-2024 13,1     16,1     18,9 5,8 72 83 93 1.018 1.020 1.021 E 6,1 30,6 0,0
04-04-2024 13,3     17,3     21,4 8,1 49 65 90 1.018 1.020 1.021 WNW 6,8 25,7 0,0
03-04-2024 10,8     17,4     23,2 12,4 40 63 86 1.017 1.018 1.021 W 7,9 32,2 0,0
02-04-2024 11,7     15,0     19,2 7,5 38 60 85 1.017 1.019 1.022 SSE 7,2 30,6 0,0
01-04-2024 9,9     15,7     20,9 11,0 32 49 68 1.004 1.011 1.018 WSW 13,5 56,3 0,0
31-03-2024 11,3     14,1     17,0 5,7 51 66 88 996 998 1.004 SO 13,6 49,9 0,0
30-03-2024 9,1     13,1     16,3 7,2 55 71 90 995 998 1.000 SSE 10,6 41,8 0,2
29-03-2024 12,6     15,1     18,6 6,0 61 79 86 994 999 1.002 SSE 5,6 49,9 0,4
28-03-2024 14,4     17,9     22,1 7,7 46 61 89 997 1.001 1.004 SSW 15,9 51,5 0,0
27-03-2024 7,8     15,7     21,0 13,2 45 59 78 995 997 999 SW 14,3 51,5 0,0
26-03-2024 10,1     14,2     18,3 8,2 34 66 99 990 992 996 SSW 10,3 64,4 0,2
25-03-2024 11,9     13,2     13,9 2,0 88 95 99 994 1.003 1.012 SSE 4,5 19,3 19,6
24-03-2024 12,5     14,6     16,4 3,9 54 80 91 1.013 1.016 1.019 E 6,4 27,4 0,0
Últims 13 mesos disponibles
03/2024 7,8 10,5 14,4 14,4 13,9 18,2 24,5 16,7 43 70 96 992 1.012 1.024 WNW 8,8 64,4 26,8
02/2024 7,2 10,6 12,7 14,2 15,6 18,6 24,1 16,9 43 63 89 994 1.019 1.034 WNW 8,9 70,8 1,0
01/2024 3,4 9,3 16,1 12,9 12,3 17,1 25,2 21,8 43 69 86 1.004 1.022 1.036 WNW 7,2 64,4 20,4
12/2023 4,4 9,0 13,5 12,8 13,6 17,6 22,2 17,8 44 64 80 1.000 1.022 1.038 WNW 8,0 56,3 3,4
11/2023 8,9 12,9 17,2 16,7 16,2 21,3 27,4 18,5 42 63 93 1.001 1.016 1.027 WNW 9,1 75,6 0,2
10/2023 12,9 17,6 22,4 21,5 20,1 25,4 29,9 17,0 49 70 85 995 1.015 1.026 WNW 8,2 61,2 5,8
09/2023 16,5 20,1 24,7 23,5 24,3 26,8 29,6 13,1 52 76 87 1.007 1.017 1.024 WNW 7,7 56,3 97,4
08/2023 19,7 23,4 26,2 26,9 27,4 30,3 35,7 16,0 45 69 82 1.010 1.016 1.021 WNW 8,2 49,9 22,0
07/2023 20,6 24,3 26,2 26,7 26,6 29,2 33,7 13,1 59 79 86 1.009 1.016 1.020 E 7,2 48,3 18,4
06/2023 16,3 20,5 24,1 23,7 22,7 26,9 30,3 14,0 58 74 82 1.009 1.015 1.023 SSE 7,5 61,2 23,2
05/2023 12,6 15,6 18,2 19,1 19,6 22,5 27,0 14,4 43 67 93 1.013 1.017 1.021 WNW 7,7 49,9 146,4
04/2023 9,3 13,4 17,1 17,3 18,2 21,2 25,5 16,2 35 64 80 1.008 1.016 1.022 E 4,0 70,8 6,8
03/2023 3,4 11,3 20,1 15,5 10,1 20,1 30,5 27,1 35 60 82 1.009 1.018 1.026 W 8,3 61,2 0,0
Tots els anys disponibles
2023 2,4 15,2 26,2 18,8 8,9 22,7 35,7 33,3 30 67 93 995 1.018 1.038 WNW 7,8 75,6 349,4
Temperatura (°C)
Humitat relativa (%)
Velocitat del vent i ràfega màxima (km/h)
Direcció del vent (°)
Pressió (hPa)
Precipitació (mm)
Nota sobre les dades: s'avisa a l'usuari de la provisionalitat i no oficialitat d'aquestes dades
Logo AVAMET blanc
Web allotjada a Sollutia
Llicència de Creative CommonsLa web d'AVAMET i els seus continguts estan subjectes a una llicència de
Reconeixement - No Comercial - Compartir igual
Avís legal - Política de privacitat - Política de cookies - Canviar configuració privacitat
NOVES ESTACIONS: Sella - Tagarina/El Volador (Soci), Quart de Poblet - los Hornillos (Soci), Buñol - Partior (Soci), la Pobla de Farnals - Platja (Ajuntament/Soci), la Pobla de Farnals (Ajuntament/Soci), Calp (Ajuntament(Soci),  Carlet (Ajuntament/Soci), l'Alcora - la Foia (Ajuntament/Soci), Sant Vicent del Raspeig - las Ocas (Soci), Alcoi - IES Cotes Baixes (Soci), San Antonio de Benagéber - CELSAB (Soci), la Todolella (Ajuntament/Soci), Artana - Caseta de les Creus (Soci), Suera - Res. Espadà (Soci), Onda - Col·legi Virgen del Carmen (Soci), Catarroja - Col·legi Larrodé (Soci), València - Patraix (Soci), Ontinyent - Torre de Torús (Soci), Requena - El Rebollar (Casa Ejarque) (Soci), Elx - la Foia (Soci), Onda - el Salvador (Ajuntament/Soci), Paiporta (Ajuntament/Soci) - - -